ExpreSS Skopelitis — SW3130 — position and weather

sailwx.info

Track history (hours):
 
Tides and Currents Weather Stations Pressure Air Temp Water Temp Dewpoint Dewpoint Depression Visibility Wind Speed Wind Dir Waves Ship Positions

ExpreSS Skopelitis

Last reported at 2014-Nov-24 15:33 UTC. Time now 2014-Nov-24 16:30 UTC.
Position N 37°03' E 025°45'.

Length 45 m; draft 2.4 m.

Type: Passenger vessel. MMSI: 237029400.

Date/timePositionNaut miles runAvg speedWind from/ knotsBaromVisibWave heightAir tempDewpointWater temp
2014-Nov-24 15:33N 37°03' E 025°45'1010.1
2014-Nov-24 14:33N 36°56' E 025°36'7 6.6
2014-Nov-24 13:33N 36°53' E 025°28'1212.2
2014-Nov-24 12:33N 37°03' E 025°20'4 3.8
2014-Nov-24 11:33N 37°06' E 025°22'0 0.0
2014-Nov-24 10:33N 37°06' E 025°22'4 3.9
2014-Nov-24 09:33N 37°03' E 025°21'1211.9
2014-Nov-24 08:33N 36°53' E 025°28'7 7.0
2014-Nov-24 07:33N 36°56' E 025°36'1212.3
2014-Nov-24 06:33N 37°05' E 025°46'9 9.1
2014-Nov-24 05:33N 36°58' E 025°54'6 6.3
2014-Nov-24 04:34N 36°52' E 025°53'3 2.6
2014-Nov-24 03:29N 36°50' E 025°52'0 0.0
2014-Nov-22 18:09N 36°50' E 025°52'4 6.3
2014-Nov-22 17:33N 36°53' E 025°55'7 7.0
2014-Nov-22 16:33N 36°59' E 025°52'7 6.8
2014-Nov-22 15:33N 37°03' E 025°45'1010.5
2014-Nov-22 14:34N 36°56' E 025°36'7 7.3
2014-Nov-22 13:33N 36°52' E 025°28'1211.7
2014-Nov-22 12:34N 37°02' E 025°21'5 4.6
2014-Nov-22 11:33N 37°06' E 025°22'0 0.0
2014-Nov-22 10:34N 37°06' E 025°22'3 3.0
2014-Nov-22 09:33N 37°04' E 025°20'1212.2
2014-Nov-22 08:34N 36°53' E 025°27'7 6.7
2014-Nov-22 07:33N 36°56' E 025°35'1111.3
2014-Nov-22 06:34N 37°04' E 025°45'8 7.7
2014-Nov-22 05:33N 36°59' E 025°54'7 7.0
2014-Nov-22 04:33N 36°52' E 025°54'6 0.5
2014-Nov-21 15:33N 36°51' E 025°47'1110.9
2014-Nov-21 14:33N 36°55' E 025°34'6 6.0
2014-Nov-21 13:34N 36°54' E 025°27'1212.2
2014-Nov-21 12:33N 37°05' E 025°20'3 2.7
2014-Nov-21 11:33N 37°06' E 025°22'0 0.0
2014-Nov-21 10:33N 37°06' E 025°22'0 0.0
2014-Nov-21 09:33N 37°06' E 025°22'2 2.1
2014-Nov-21 08:33N 37°05' E 025°20'1211.6
2014-Nov-21 07:34N 36°55' E 025°26'6 6.3
2014-Nov-21 06:34N 36°55' E 025°34'10 9.8
2014-Nov-21 05:33N 36°52' E 025°46'6 1.8
2014-Nov-21 02:30N 36°50' E 025°52'3 0.3
2014-Nov-20 15:34N 36°50' E 025°48'1110.9
2014-Nov-20 14:34N 36°56' E 025°36'7 7.2
2014-Nov-20 13:33N 36°52' E 025°28'1212.0
2014-Nov-20 12:33N 37°02' E 025°21'4 4.3
2014-Nov-20 11:33N 37°06' E 025°22'0 0.0
2014-Nov-20 10:33N 37°06' E 025°22'0 0.0
2014-Nov-20 09:33N 37°06' E 025°22'3 3.1
2014-Nov-20 08:33N 37°04' E 025°20'1211.9
2014-Nov-20 07:34N 36°54' E 025°27'6 6.1
2014-Nov-20 06:33N 36°55' E 025°35'1010.3
2014-Nov-20 05:33N 36°52' E 025°47'4 3.4
2014-Nov-20 04:13N 36°50' E 025°52'0 0.0
2014-Nov-20 03:33N 36°50' E 025°52'0 0.0
2014-Nov-20 02:34N 36°50' E 025°52'0 0.0
2014-Nov-20 01:24N 36°50' E 025°52'0 0.0
2014-Nov-19 18:07N 36°50' E 025°52'3 6.2
2014-Nov-19 17:33N 36°53' E 025°54'7 6.9
2014-Nov-19 16:34N 36°59' E 025°53'7 6.9
2014-Nov-19 15:33N 37°03' E 025°46'1110.8
2014-Nov-19 14:34N 36°56' E 025°36'7 7.2
2014-Nov-19 13:34N 36°52' E 025°28'1211.8
2014-Nov-19 12:34N 37°02' E 025°21'4 4.4
2014-Nov-19 11:33N 37°06' E 025°22'0 0.0
2014-Nov-19 10:33N 37°06' E 025°22'4 4.4
2014-Nov-19 09:34N 37°02' E 025°21'1211.4
2014-Nov-19 08:31N 36°52' E 025°28'7 7.7
2014-Nov-19 07:33N 36°56' E 025°36'1212.0
2014-Nov-19 06:34N 37°05' E 025°46'9 8.8
2014-Nov-19 05:33N 36°58' E 025°54'6 6.3
2014-Nov-19 04:33N 36°52' E 025°53'3 0.5
2014-Nov-18 23:28N 36°50' E 025°52'0 0.0
2014-Nov-18 22:22N 36°50' E 025°52'0 0.0
2014-Nov-18 21:33N 36°50' E 025°52'0 0.0
2014-Nov-18 20:33N 36°50' E 025°52'0 0.0
2014-Nov-18 19:34N 36°50' E 025°52'0 0.0
2014-Nov-18 18:34N 36°50' E 025°52'0 0.0
2014-Nov-18 17:34N 36°50' E 025°52'0 0.0
2014-Nov-18 16:33N 36°50' E 025°52'3 3.0
2014-Nov-18 15:33N 36°51' E 025°48'1111.1
2014-Nov-18 14:34N 36°56' E 025°36'7 7.4
2014-Nov-18 13:34N 36°52' E 025°28'1211.5
2014-Nov-18 12:33N 37°02' E 025°21'5 4.7
2014-Nov-18 11:33N 37°06' E 025°22'0 0.0
2014-Nov-18 10:33N 37°06' E 025°22'0 0.0
2014-Nov-18 09:33N 37°06' E 025°22'1 0.9
2014-Nov-18 08:33N 37°06' E 025°21'1111.2
2014-Nov-18 07:34N 36°55' E 025°26'6 5.7
2014-Nov-18 06:33N 36°54' E 025°33'1010.2
2014-Nov-18 05:33N 36°53' E 025°45'6 0.5
2014-Nov-17 18:07N 36°50' E 025°52'3 5.2
2014-Nov-17 17:33N 36°52' E 025°53'6 6.4
2014-Nov-17 16:33N 36°59' E 025°53'8 7.9
2014-Nov-17 15:33N 37°04' E 025°46'1211.8
2014-Nov-17 14:34N 36°56' E 025°36'7 7.4
2014-Nov-17 13:33N 36°52' E 025°28'1111.4
2014-Nov-17 12:33N 37°02' E 025°21'5 4.8
2014-Nov-17 11:33N 37°06' E 025°22'0 0.0
2014-Nov-17 10:34N 37°06' E 025°22'3 2.9
2014-Nov-17 09:33N 37°04' E 025°20'1212.4
2014-Nov-17 08:34N 36°54' E 025°27'7 6.5
2014-Nov-17 07:33N 36°56' E 025°35'1010.5
2014-Nov-17 06:34N 37°03' E 025°45'8 7.4
2014-Nov-17 05:33N 36°60' E 025°53'7 7.5
2014-Nov-17 04:33N 36°52' E 025°54'3 1.0
2014-Nov-17 01:08N 36°50' E 025°52'0 0.0
2014-Nov-17 00:26N 36°50' E 025°52'0 0.0
2014-Nov-16 23:23N 36°50' E 025°52'0 0.0
2014-Nov-16 22:32N 36°50' E 025°52'0 0.0
2014-Nov-16 21:31N 36°50' E 025°52'0 0.0
2014-Nov-16 20:10N 36°50' E 025°52'0 0.0
2014-Nov-16 19:33N 36°50' E 025°52'0 0.0
2014-Nov-16 17:31N 36°50' E 025°52'0 0.0
2014-Nov-16 16:24N 36°50' E 025°52'0 0.0
2014-Nov-16 15:26N 36°50' E 025°52'0 0.0
2014-Nov-16 14:05N 36°50' E 025°52'0 0.0
2014-Nov-16 13:33N 36°50' E 025°52'0 0.0
2014-Nov-16 12:11N 36°50' E 025°52'0 0.0
2014-Nov-16 11:29N 36°50' E 025°52'0 0.0
2014-Nov-16 10:32N 36°50' E 025°52'0 0.0
2014-Nov-16 09:32N 36°50' E 025°52'0 0.0
2014-Nov-16 08:30N 36°50' E 025°52'0 0.0
2014-Nov-16 07:25N 36°50' E 025°52'0 0.0
2014-Nov-16 06:33N 36°50' E 025°52'0 0.0
2014-Nov-16 04:08N 36°50' E 025°52'0 0.0
2014-Nov-16 03:33N 36°50' E 025°52'0 0.0
2014-Nov-16 02:33N 36°50' E 025°52'0 0.0
2014-Nov-16 01:31N 36°50' E 025°52'0 0.0
2014-Nov-16 00:33N 36°50' E 025°52'0 0.0
2014-Nov-15 23:32N 36°50' E 025°52'0 0.0
2014-Nov-15 22:32N 36°50' E 025°52'0 0.0
2014-Nov-15 21:21N 36°50' E 025°52'0 0.0
2014-Nov-15 20:29N 36°50' E 025°52'0 0.0
2014-Nov-15 19:33N 36°50' E 025°52'0 0.0
2014-Nov-15 18:28N 36°50' E 025°52'3 3.5
2014-Nov-15 17:33N 36°52' E 025°54'7 6.5
2014-Nov-15 16:33N 36°59' E 025°53'7 7.5
2014-Nov-15 15:34N 37°04' E 025°46'1211.5
2014-Nov-15 14:33N 36°56' E 025°36'7 7.4
2014-Nov-15 13:33N 36°52' E 025°28'1111.5
2014-Nov-15 12:34N 37°02' E 025°21'5 4.8
2014-Nov-15 11:33N 37°06' E 025°22'0 0.0
2014-Nov-15 10:33N 37°06' E 025°22'3 3.1
2014-Nov-15 09:33N 37°04' E 025°20'1211.9
2014-Nov-15 08:33N 36°53' E 025°28'6 6.5
2014-Nov-15 07:33N 36°55' E 025°35'1111.2
2014-Nov-15 06:34N 37°03' E 025°45'8 7.5
2014-Nov-15 05:33N 36°60' E 025°53'7 7.2
2014-Nov-15 04:33N 36°52' E 025°54'3 3.3
2014-Nov-15 03:33N 36°50' E 025°52'0 0.0
2014-Nov-15 02:32N 36°50' E 025°52'0 0.0
2014-Nov-15 01:32N 36°50' E 025°52'0 0.0
2014-Nov-15 00:31N 36°50' E 025°52'  
Track history (hours):
 
Tides and Currents Weather Stations Pressure Air Temp Water Temp Dewpoint Dewpoint Depression Visibility Wind Speed Wind Dir Waves Ship Positions

ExpreSS Skopelitis

Last reported at 2014-Nov-24 15:33 UTC. Time now 2014-Nov-24 16:30 UTC.
Position N 37°03' E 025°45'.

Length 45 m; draft 2.4 m.

Type: Passenger vessel. MMSI: 237029400.

Date/timePositionNaut miles runAvg speedWind from/ knotsBaromVisibWave heightAir tempDewpointWater temp
2014-Nov-24 15:33N 37°03' E 025°45'1010.1
2014-Nov-24 14:33N 36°56' E 025°36'7 6.6
2014-Nov-24 13:33N 36°53' E 025°28'1212.2
2014-Nov-24 12:33N 37°03' E 025°20'4 3.8
2014-Nov-24 11:33N 37°06' E 025°22'0 0.0
2014-Nov-24 10:33N 37°06' E 025°22'4 3.9
2014-Nov-24 09:33N 37°03' E 025°21'1211.9
2014-Nov-24 08:33N 36°53' E 025°28'7 7.0
2014-Nov-24 07:33N 36°56' E 025°36'1212.3
2014-Nov-24 06:33N 37°05' E 025°46'9 9.1
2014-Nov-24 05:33N 36°58' E 025°54'6 6.3
2014-Nov-24 04:34N 36°52' E 025°53'3 2.6
2014-Nov-24 03:29N 36°50' E 025°52'0 0.0
2014-Nov-22 18:09N 36°50' E 025°52'4 6.3
2014-Nov-22 17:33N 36°53' E 025°55'7 7.0
2014-Nov-22 16:33N 36°59' E 025°52'7 6.8
2014-Nov-22 15:33N 37°03' E 025°45'1010.5
2014-Nov-22 14:34N 36°56' E 025°36'7 7.3
2014-Nov-22 13:33N 36°52' E 025°28'1211.7
2014-Nov-22 12:34N 37°02' E 025°21'5 4.6
2014-Nov-22 11:33N 37°06' E 025°22'0 0.0
2014-Nov-22 10:34N 37°06' E 025°22'3 3.0
2014-Nov-22 09:33N 37°04' E 025°20'1212.2
2014-Nov-22 08:34N 36°53' E 025°27'7 6.7
2014-Nov-22 07:33N 36°56' E 025°35'1111.3
2014-Nov-22 06:34N 37°04' E 025°45'8 7.7
2014-Nov-22 05:33N 36°59' E 025°54'7 7.0
2014-Nov-22 04:33N 36°52' E 025°54'6 0.5
2014-Nov-21 15:33N 36°51' E 025°47'1110.9
2014-Nov-21 14:33N 36°55' E 025°34'6 6.0
2014-Nov-21 13:34N 36°54' E 025°27'1212.2
2014-Nov-21 12:33N 37°05' E 025°20'3 2.7
2014-Nov-21 11:33N 37°06' E 025°22'0 0.0
2014-Nov-21 10:33N 37°06' E 025°22'0 0.0
2014-Nov-21 09:33N 37°06' E 025°22'2 2.1
2014-Nov-21 08:33N 37°05' E 025°20'1211.6
2014-Nov-21 07:34N 36°55' E 025°26'6 6.3
2014-Nov-21 06:34N 36°55' E 025°34'10 9.8
2014-Nov-21 05:33N 36°52' E 025°46'6 1.8
2014-Nov-21 02:30N 36°50' E 025°52'3 0.3
2014-Nov-20 15:34N 36°50' E 025°48'1110.9
2014-Nov-20 14:34N 36°56' E 025°36'7 7.2
2014-Nov-20 13:33N 36°52' E 025°28'1212.0
2014-Nov-20 12:33N 37°02' E 025°21'4 4.3
2014-Nov-20 11:33N 37°06' E 025°22'0 0.0
2014-Nov-20 10:33N 37°06' E 025°22'0 0.0
2014-Nov-20 09:33N 37°06' E 025°22'3 3.1
2014-Nov-20 08:33N 37°04' E 025°20'1211.9
2014-Nov-20 07:34N 36°54' E 025°27'6 6.1
2014-Nov-20 06:33N 36°55' E 025°35'1010.3
2014-Nov-20 05:33N 36°52' E 025°47'4 3.4
2014-Nov-20 04:13N 36°50' E 025°52'0 0.0
2014-Nov-20 03:33N 36°50' E 025°52'0 0.0
2014-Nov-20 02:34N 36°50' E 025°52'0 0.0
2014-Nov-20 01:24N 36°50' E 025°52'0 0.0
2014-Nov-19 18:07N 36°50' E 025°52'3 6.2
2014-Nov-19 17:33N 36°53' E 025°54'7 6.9
2014-Nov-19 16:34N 36°59' E 025°53'7 6.9
2014-Nov-19 15:33N 37°03' E 025°46'1110.8
2014-Nov-19 14:34N 36°56' E 025°36'7 7.2
2014-Nov-19 13:34N 36°52' E 025°28'1211.8
2014-Nov-19 12:34N 37°02' E 025°21'4 4.4
2014-Nov-19 11:33N 37°06' E 025°22'0 0.0
2014-Nov-19 10:33N 37°06' E 025°22'4 4.4
2014-Nov-19 09:34N 37°02' E 025°21'1211.4
2014-Nov-19 08:31N 36°52' E 025°28'7 7.7
2014-Nov-19 07:33N 36°56' E 025°36'1212.0
2014-Nov-19 06:34N 37°05' E 025°46'9 8.8
2014-Nov-19 05:33N 36°58' E 025°54'6 6.3
2014-Nov-19 04:33N 36°52' E 025°53'3 0.5
2014-Nov-18 23:28N 36°50' E 025°52'0 0.0
2014-Nov-18 22:22N 36°50' E 025°52'0 0.0
2014-Nov-18 21:33N 36°50' E 025°52'0 0.0
2014-Nov-18 20:33N 36°50' E 025°52'0 0.0
2014-Nov-18 19:34N 36°50' E 025°52'0 0.0
2014-Nov-18 18:34N 36°50' E 025°52'0 0.0
2014-Nov-18 17:34N 36°50' E 025°52'0 0.0
2014-Nov-18 16:33N 36°50' E 025°52'3 3.0
2014-Nov-18 15:33N 36°51' E 025°48'1111.1
2014-Nov-18 14:34N 36°56' E 025°36'7 7.4
2014-Nov-18 13:34N 36°52' E 025°28'1211.5
2014-Nov-18 12:33N 37°02' E 025°21'5 4.7
2014-Nov-18 11:33N 37°06' E 025°22'0 0.0
2014-Nov-18 10:33N 37°06' E 025°22'0 0.0
2014-Nov-18 09:33N 37°06' E 025°22'1 0.9
2014-Nov-18 08:33N 37°06' E 025°21'1111.2
2014-Nov-18 07:34N 36°55' E 025°26'6 5.7
2014-Nov-18 06:33N 36°54' E 025°33'1010.2
2014-Nov-18 05:33N 36°53' E 025°45'6 0.5
2014-Nov-17 18:07N 36°50' E 025°52'3 5.2
2014-Nov-17 17:33N 36°52' E 025°53'6 6.4
2014-Nov-17 16:33N 36°59' E 025°53'8 7.9
2014-Nov-17 15:33N 37°04' E 025°46'1211.8
2014-Nov-17 14:34N 36°56' E 025°36'7 7.4
2014-Nov-17 13:33N 36°52' E 025°28'1111.4
2014-Nov-17 12:33N 37°02' E 025°21'5 4.8
2014-Nov-17 11:33N 37°06' E 025°22'0 0.0
2014-Nov-17 10:34N 37°06' E 025°22'3 2.9
2014-Nov-17 09:33N 37°04' E 025°20'1212.4
2014-Nov-17 08:34N 36°54' E 025°27'7 6.5
2014-Nov-17 07:33N 36°56' E 025°35'1010.5
2014-Nov-17 06:34N 37°03' E 025°45'8 7.4
2014-Nov-17 05:33N 36°60' E 025°53'7 7.5
2014-Nov-17 04:33N 36°52' E 025°54'3 1.0
2014-Nov-17 01:08N 36°50' E 025°52'0 0.0
2014-Nov-17 00:26N 36°50' E 025°52'0 0.0
2014-Nov-16 23:23N 36°50' E 025°52'0 0.0
2014-Nov-16 22:32N 36°50' E 025°52'0 0.0
2014-Nov-16 21:31N 36°50' E 025°52'0 0.0
2014-Nov-16 20:10N 36°50' E 025°52'0 0.0
2014-Nov-16 19:33N 36°50' E 025°52'0 0.0
2014-Nov-16 17:31N 36°50' E 025°52'0 0.0
2014-Nov-16 16:24N 36°50' E 025°52'0 0.0
2014-Nov-16 15:26N 36°50' E 025°52'0 0.0
2014-Nov-16 14:05N 36°50' E 025°52'0 0.0
2014-Nov-16 13:33N 36°50' E 025°52'0 0.0
2014-Nov-16 12:11N 36°50' E 025°52'0 0.0
2014-Nov-16 11:29N 36°50' E 025°52'0 0.0
2014-Nov-16 10:32N 36°50' E 025°52'0 0.0
2014-Nov-16 09:32N 36°50' E 025°52'0 0.0
2014-Nov-16 08:30N 36°50' E 025°52'0 0.0
2014-Nov-16 07:25N 36°50' E 025°52'0 0.0
2014-Nov-16 06:33N 36°50' E 025°52'0 0.0
2014-Nov-16 04:08N 36°50' E 025°52'0 0.0
2014-Nov-16 03:33N 36°50' E 025°52'0 0.0
2014-Nov-16 02:33N 36°50' E 025°52'0 0.0
2014-Nov-16 01:31N 36°50' E 025°52'0 0.0
2014-Nov-16 00:33N 36°50' E 025°52'0 0.0
2014-Nov-15 23:32N 36°50' E 025°52'0 0.0
2014-Nov-15 22:32N 36°50' E 025°52'0 0.0
2014-Nov-15 21:21N 36°50' E 025°52'0 0.0
2014-Nov-15 20:29N 36°50' E 025°52'0 0.0
2014-Nov-15 19:33N 36°50' E 025°52'0 0.0
2014-Nov-15 18:28N 36°50' E 025°52'3 3.5
2014-Nov-15 17:33N 36°52' E 025°54'7 6.5
2014-Nov-15 16:33N 36°59' E 025°53'7 7.5
2014-Nov-15 15:34N 37°04' E 025°46'1211.5
2014-Nov-15 14:33N 36°56' E 025°36'7 7.4
2014-Nov-15 13:33N 36°52' E 025°28'1111.5
2014-Nov-15 12:34N 37°02' E 025°21'5 4.8
2014-Nov-15 11:33N 37°06' E 025°22'0 0.0
2014-Nov-15 10:33N 37°06' E 025°22'3 3.1
2014-Nov-15 09:33N 37°04' E 025°20'1211.9
2014-Nov-15 08:33N 36°53' E 025°28'6 6.5
2014-Nov-15 07:33N 36°55' E 025°35'1111.2
2014-Nov-15 06:34N 37°03' E 025°45'8 7.5
2014-Nov-15 05:33N 36°60' E 025°53'7 7.2
2014-Nov-15 04:33N 36°52' E 025°54'3 3.3
2014-Nov-15 03:33N 36°50' E 025°52'0 0.0
2014-Nov-15 02:32N 36°50' E 025°52'0 0.0
2014-Nov-15 01:32N 36°50' E 025°52'0 0.0
2014-Nov-15 00:31N 36°50' E 025°52'  

Dump ship's entire track history